createdAt,value
2022-10-17T00:00:29.687Z,93.60
2022-10-17T00:01:29.756Z,93.40
2022-10-17T00:02:30.687Z,93.21
2022-10-17T00:03:29.689Z,92.93
2022-10-17T00:04:29.734Z,93.31
2022-10-17T00:05:29.694Z,93.50
2022-10-17T00:06:29.687Z,93.40
2022-10-17T00:07:30.165Z,93.21
2022-10-17T00:08:30.675Z,93.50
2022-10-17T00:09:29.727Z,93.21
2022-10-17T00:10:29.669Z,93.40
2022-10-17T00:11:29.661Z,93.50
2022-10-17T00:12:29.659Z,93.50
2022-10-17T00:13:29.707Z,93.40
2022-10-17T00:14:30.669Z,93.12
2022-10-17T00:15:29.663Z,93.60
2022-10-17T00:16:29.657Z,93.69
2022-10-17T00:17:30.123Z,93.60
2022-10-17T00:18:29.644Z,93.98
2022-10-17T00:19:29.652Z,94.17
2022-10-17T00:20:30.648Z,93.88
2022-10-17T00:21:29.628Z,94.55
2022-10-17T00:22:29.661Z,93.98
2022-10-17T00:23:29.633Z,93.93
2022-10-17T00:24:29.634Z,93.84
2022-10-17T00:25:29.635Z,93.84
2022-10-17T00:26:30.650Z,93.84
2022-10-17T00:27:29.911Z,94.07
2022-10-17T00:28:29.679Z,93.74
2022-10-17T00:29:29.615Z,94.02
2022-10-17T00:30:29.607Z,94.21
2022-10-17T00:31:29.611Z,94.12
2022-10-17T00:32:30.956Z,94.12
2022-10-17T00:33:29.608Z,94.07
2022-10-17T00:34:29.597Z,94.17
2022-10-17T00:35:29.598Z,93.93
2022-10-17T00:36:29.600Z,94.36
2022-10-17T00:37:29.601Z,93.50
2022-10-17T00:38:30.611Z,94.31
2022-10-17T00:39:29.604Z,94.12
2022-10-17T00:40:29.592Z,94.12
2022-10-17T00:41:29.600Z,94.12
2022-10-17T00:42:30.055Z,93.74
2022-10-17T00:43:29.577Z,94.12
2022-10-17T00:44:30.596Z,93.88
2022-10-17T00:45:29.570Z,94.55
2022-10-17T00:46:29.580Z,94.17
2022-10-17T00:47:29.563Z,94.65
2022-10-17T00:48:29.580Z,94.17
2022-10-17T00:49:29.563Z,94.26
2022-10-17T00:50:30.583Z,95.07
2022-10-17T00:51:29.583Z,94.70
2022-10-17T00:52:29.754Z,94.98
2022-10-17T00:53:29.572Z,95.22
2022-10-17T00:54:29.553Z,95.03
2022-10-17T00:55:29.564Z,95.03
2022-10-17T00:56:30.559Z,95.07
2022-10-17T00:57:29.554Z,95.84
2022-10-17T00:58:29.587Z,95.75
2022-10-17T00:59:29.561Z,94.84
2022-10-17T01:00:29.585Z,94.98
2022-10-17T01:01:29.590Z,95.84
2022-10-17T01:02:30.777Z,95.61
2022-10-17T01:03:29.543Z,95.46
2022-10-17T01:04:29.537Z,95.94
2022-10-17T01:05:29.530Z,96.03
2022-10-17T01:06:29.536Z,95.94
2022-10-17T01:07:33.159Z,95.75
2022-10-17T01:08:30.535Z,95.94
2022-10-17T01:09:29.521Z,96.61
2022-10-17T01:10:29.568Z,95.75
2022-10-17T01:11:29.515Z,95.94
2022-10-17T01:12:29.799Z,95.94
2022-10-17T01:13:29.504Z,95.75
2022-10-17T01:14:30.515Z,96.03
2022-10-17T01:15:29.515Z,95.94
2022-10-17T01:16:29.526Z,95.84
2022-10-17T01:17:29.497Z,95.94
2022-10-17T01:18:29.505Z,96.13
2022-10-17T01:19:29.531Z,95.56
2022-10-17T01:20:30.522Z,95.46
2022-10-17T01:21:29.515Z,95.65
2022-10-17T01:22:29.662Z,95.94
2022-10-17T01:23:29.487Z,95.94
2022-10-17T01:24:29.492Z,96.51
2022-10-17T01:25:29.482Z,96.32
2022-10-17T01:26:30.516Z,96.22
2022-10-17T01:27:29.503Z,96.61
2022-10-17T01:28:29.623Z,96.51
2022-10-17T01:29:29.541Z,96.80
2022-10-17T01:30:29.477Z,97.28
2022-10-17T01:31:29.496Z,97.42
2022-10-17T01:32:30.832Z,97.37
2022-10-17T01:33:29.465Z,97.47
2022-10-17T01:34:29.461Z,97.75
2022-10-17T01:35:29.466Z,98.04
2022-10-17T01:36:29.462Z,98.33
2022-10-17T01:37:29.455Z,97.95
2022-10-17T01:38:30.468Z,97.85
2022-10-17T01:39:30.230Z,98.61
2022-10-17T01:40:29.455Z,98.33
2022-10-17T01:41:29.533Z,98.14
2022-10-17T01:42:29.841Z,98.43
2022-10-17T01:43:29.456Z,98.33
2022-10-17T01:44:30.458Z,98.33
2022-10-17T01:45:29.443Z,98.52
2022-10-17T01:46:29.442Z,98.81
2022-10-17T01:47:29.684Z,98.71
2022-10-17T01:48:29.436Z,99.29
2022-10-17T01:49:29.470Z,99.00
2022-10-17T01:50:30.484Z,99.00
2022-10-17T01:51:29.453Z,99.29
2022-10-17T01:52:29.424Z,98.81
2022-10-17T01:53:29.417Z,98.71
2022-10-17T01:54:29.457Z,98.43
2022-10-17T01:55:29.418Z,98.81
2022-10-17T01:56:30.435Z,99.48
2022-10-17T01:57:29.726Z,99.48
2022-10-17T01:58:29.430Z,99.33
2022-10-17T01:59:29.412Z,99.38
2022-10-17T02:00:29.401Z,99.10
2022-10-17T02:01:29.493Z,99.29
2022-10-17T02:02:30.410Z,99.43
2022-10-17T02:03:29.400Z,99.81
2022-10-17T02:04:29.411Z,99.76
2022-10-17T02:05:29.415Z,99.76
2022-10-17T02:06:29.391Z,99.99
2022-10-17T02:07:29.812Z,99.99
2022-10-17T02:08:30.417Z,99.99
2022-10-17T02:09:29.404Z,99.71
2022-10-17T02:10:29.401Z,99.99
2022-10-17T02:11:29.376Z,99.99
2022-10-17T02:12:29.377Z,99.99
2022-10-17T02:13:29.387Z,99.99
2022-10-17T02:14:30.389Z,99.99
2022-10-17T02:15:29.376Z,99.99
2022-10-17T02:16:29.374Z,99.99
2022-10-17T02:17:29.684Z,99.99
2022-10-17T02:18:29.361Z,99.99
2022-10-17T02:19:29.368Z,99.99
2022-10-17T02:20:30.356Z,99.99
2022-10-17T02:21:29.371Z,99.99
2022-10-17T02:22:29.354Z,99.99
2022-10-17T02:23:29.358Z,99.99
2022-10-17T02:24:29.346Z,99.99
2022-10-17T02:25:29.358Z,99.99
2022-10-17T02:26:30.368Z,99.99
2022-10-17T02:27:29.827Z,99.99
2022-10-17T02:28:29.402Z,99.99
2022-10-17T02:29:29.334Z,99.99
2022-10-17T02:30:29.330Z,99.99
2022-10-17T02:31:29.328Z,99.99
2022-10-17T02:32:30.351Z,99.99
2022-10-17T02:33:29.333Z,99.99
2022-10-17T02:34:29.328Z,99.99
2022-10-17T02:35:29.330Z,99.99
2022-10-17T02:36:29.326Z,99.99
2022-10-17T02:37:29.790Z,99.99
2022-10-17T02:38:30.347Z,99.99
2022-10-17T02:39:29.344Z,99.99
2022-10-17T02:40:29.310Z,99.99
2022-10-17T02:42:29.591Z,99.99
2022-10-17T02:43:29.316Z,99.99
2022-10-17T02:44:30.318Z,99.99
2022-10-17T02:45:29.307Z,99.99
2022-10-17T02:46:29.307Z,99.99
2022-10-17T02:47:29.295Z,99.99
2022-10-17T02:48:29.296Z,99.99
2022-10-17T02:49:29.294Z,99.99
2022-10-17T02:50:30.298Z,99.99
2022-10-17T02:51:29.316Z,99.99
2022-10-17T02:52:29.451Z,99.99
2022-10-17T02:53:29.283Z,99.99
2022-10-17T02:54:29.272Z,99.99
2022-10-17T02:55:29.271Z,99.99
2022-10-17T02:56:30.301Z,99.99
2022-10-17T02:57:29.264Z,99.99
2022-10-17T02:58:29.271Z,99.99
2022-10-17T02:59:29.310Z,99.99
2022-10-17T03:00:29.264Z,99.99
2022-10-17T03:01:29.296Z,99.99
2022-10-17T03:02:30.547Z,99.99
2022-10-17T03:03:29.286Z,99.99
2022-10-17T03:04:29.262Z,99.99
2022-10-17T03:05:29.253Z,99.99
2022-10-17T03:06:29.240Z,99.99
2022-10-17T03:07:29.253Z,99.99
2022-10-17T03:08:30.300Z,99.99
2022-10-17T03:09:29.239Z,99.99
2022-10-17T03:10:29.264Z,99.99
2022-10-17T03:11:29.251Z,99.99
2022-10-17T03:12:29.496Z,99.99
2022-10-17T03:13:29.269Z,99.99
2022-10-17T03:14:30.247Z,99.99
2022-10-17T03:15:29.229Z,99.99
2022-10-17T03:16:29.263Z,99.99
2022-10-17T03:17:29.259Z,99.99
2022-10-17T03:18:29.228Z,99.99
2022-10-17T03:19:29.223Z,99.99
2022-10-17T03:20:30.226Z,99.99
2022-10-17T03:21:29.213Z,99.99
2022-10-17T03:22:29.481Z,99.99
2022-10-17T03:23:29.221Z,99.99
2022-10-17T03:24:29.210Z,99.99
2022-10-17T03:25:29.223Z,99.99
2022-10-17T03:26:30.211Z,99.99
2022-10-17T03:27:29.379Z,99.99
2022-10-17T03:28:29.223Z,99.99
2022-10-17T03:29:29.197Z,99.99
2022-10-17T03:30:29.216Z,99.99
2022-10-17T03:31:29.202Z,99.99
2022-10-17T03:32:30.270Z,99.99
2022-10-17T03:33:29.209Z,99.99
2022-10-17T03:34:29.179Z,99.99
2022-10-17T03:35:29.209Z,99.99
2022-10-17T03:36:29.200Z,99.99
2022-10-17T03:37:29.480Z,99.99
2022-10-17T03:38:30.177Z,99.99
2022-10-17T03:39:29.166Z,99.99
2022-10-17T03:40:29.193Z,99.99
2022-10-17T03:41:29.183Z,99.99
2022-10-17T03:42:29.163Z,99.99
2022-10-17T03:43:29.165Z,99.99
2022-10-17T03:44:30.169Z,99.99
2022-10-17T03:45:29.163Z,99.99
2022-10-17T03:46:29.177Z,99.99
2022-10-17T03:47:29.465Z,99.99
2022-10-17T03:48:29.144Z,99.99
2022-10-17T03:49:29.158Z,99.99
2022-10-17T03:50:30.160Z,99.99
2022-10-17T03:51:29.143Z,99.99
2022-10-17T03:52:29.149Z,99.99
2022-10-17T03:53:29.179Z,99.99
2022-10-17T03:54:29.140Z,99.99
2022-10-17T03:55:29.134Z,99.99
2022-10-17T03:56:30.147Z,99.99
2022-10-17T03:57:29.270Z,99.99
2022-10-17T03:58:29.155Z,99.99
2022-10-17T03:59:29.126Z,99.99
2022-10-17T04:00:29.128Z,99.99
2022-10-17T04:01:29.195Z,99.99
2022-10-17T04:02:30.133Z,99.99
2022-10-17T04:03:29.135Z,99.99
2022-10-17T04:04:29.103Z,99.99
2022-10-17T04:05:29.125Z,99.99
2022-10-17T04:06:29.105Z,99.99
2022-10-17T04:07:29.113Z,99.99
2022-10-17T04:08:30.112Z,99.99
2022-10-17T04:09:29.172Z,99.99
2022-10-17T04:10:29.112Z,99.99
2022-10-17T04:11:29.100Z,99.99
2022-10-17T04:12:29.256Z,99.99
2022-10-17T04:13:29.088Z,99.99
2022-10-17T04:14:30.090Z,99.99
2022-10-17T04:15:29.094Z,99.99
2022-10-17T04:16:29.076Z,99.99
2022-10-17T04:17:29.084Z,99.99
2022-10-17T04:18:29.071Z,99.99
2022-10-17T04:19:29.084Z,99.99
2022-10-17T04:20:30.081Z,99.99
2022-10-17T04:21:29.070Z,99.99
2022-10-17T04:22:29.424Z,99.99
2022-10-17T04:23:29.062Z,99.99
2022-10-17T04:24:29.057Z,99.99
2022-10-17T04:25:32.219Z,99.99
2022-10-17T04:26:30.063Z,99.99
2022-10-17T04:27:29.080Z,99.99
2022-10-17T04:28:29.181Z,99.99
2022-10-17T04:29:29.054Z,99.99
2022-10-17T04:30:29.049Z,99.99
2022-10-17T04:31:29.085Z,99.99
2022-10-17T04:32:30.266Z,99.99
2022-10-17T04:33:29.039Z,99.99
2022-10-17T04:34:29.044Z,99.99
2022-10-17T04:35:29.052Z,99.99
2022-10-17T04:36:29.069Z,99.99
2022-10-17T04:37:29.060Z,99.99
2022-10-17T04:38:30.134Z,99.99
2022-10-17T04:39:29.030Z,99.99
2022-10-17T04:40:29.031Z,99.99
2022-10-17T04:41:29.030Z,99.99
2022-10-17T04:42:29.244Z,99.99
2022-10-17T04:43:29.010Z,99.99
2022-10-17T04:44:30.084Z,99.99
2022-10-17T04:45:29.142Z,99.99
2022-10-17T04:46:29.002Z,99.99
2022-10-17T04:47:29.002Z,99.99
2022-10-17T04:48:28.994Z,99.99
2022-10-17T04:49:29.020Z,99.99
2022-10-17T04:50:30.021Z,99.99
2022-10-17T04:51:29.000Z,99.99
2022-10-17T04:52:29.141Z,99.99
2022-10-17T04:53:28.989Z,99.99
2022-10-17T04:54:29.006Z,99.99
2022-10-17T04:55:28.999Z,99.99
2022-10-17T04:56:29.999Z,99.99
2022-10-17T04:57:28.980Z,99.99
2022-10-17T04:58:28.974Z,99.99
2022-10-17T04:59:28.993Z,99.99
2022-10-17T05:00:28.996Z,99.99
2022-10-17T05:01:29.118Z,99.99
2022-10-17T05:02:30.286Z,99.99
2022-10-17T05:03:29.248Z,99.99
2022-10-17T05:04:28.955Z,99.99
2022-10-17T05:05:28.972Z,99.99
2022-10-17T05:06:28.968Z,99.99
2022-10-17T05:07:28.997Z,99.99
2022-10-17T05:08:29.979Z,99.99
2022-10-17T05:09:28.965Z,99.99
2022-10-17T05:10:28.951Z,99.99
2022-10-17T05:11:28.988Z,99.99
2022-10-17T05:12:29.322Z,99.99
2022-10-17T05:13:28.951Z,99.99
2022-10-17T05:14:29.948Z,99.99
2022-10-17T05:15:28.935Z,99.99
2022-10-17T05:16:28.932Z,99.99
2022-10-17T05:17:28.965Z,99.99
2022-10-17T05:18:28.966Z,99.99
2022-10-17T05:19:28.925Z,99.99
2022-10-17T05:20:29.958Z,99.99
2022-10-17T05:21:29.010Z,99.99
2022-10-17T05:22:29.194Z,99.99
2022-10-17T05:23:28.945Z,99.99
2022-10-17T05:24:28.924Z,99.99
2022-10-17T05:25:28.907Z,99.99
2022-10-17T05:26:29.921Z,99.99
2022-10-17T05:27:28.979Z,99.99
2022-10-17T05:28:28.984Z,99.99
2022-10-17T05:29:28.902Z,99.99
2022-10-17T05:30:29.946Z,99.99
2022-10-17T05:31:28.992Z,99.99
2022-10-17T05:32:30.211Z,99.99
2022-10-17T05:33:28.949Z,99.99
2022-10-17T05:34:28.881Z,99.99
2022-10-17T05:35:28.889Z,99.99
2022-10-17T05:36:28.901Z,99.99
2022-10-17T05:37:28.896Z,99.99
2022-10-17T05:38:29.899Z,99.99
2022-10-17T05:39:28.889Z,99.99
2022-10-17T05:40:28.885Z,99.99
2022-10-17T05:41:28.873Z,99.99
2022-10-17T05:42:29.261Z,99.99
2022-10-17T05:43:28.873Z,99.99
2022-10-17T05:44:29.872Z,99.99
2022-10-17T05:45:28.859Z,99.99
2022-10-17T05:46:28.871Z,99.99
2022-10-17T05:47:29.094Z,99.99
2022-10-17T05:48:28.869Z,99.99
2022-10-17T05:49:40.081Z,99.99
2022-10-17T05:50:29.990Z,99.99
2022-10-17T05:51:28.973Z,99.99
2022-10-17T05:52:29.130Z,99.99
2022-10-17T05:53:28.854Z,99.99
2022-10-17T05:54:28.863Z,99.99
2022-10-17T05:55:28.842Z,99.99
2022-10-17T05:56:29.948Z,99.99
2022-10-17T05:57:28.877Z,99.99
2022-10-17T05:59:28.828Z,99.99
2022-10-17T06:00:28.854Z,99.99
2022-10-17T06:01:28.830Z,99.99
2022-10-17T06:02:30.077Z,99.99
2022-10-17T06:03:29.473Z,99.99
2022-10-17T06:04:28.841Z,99.99
2022-10-17T06:05:28.817Z,99.99
2022-10-17T06:06:28.806Z,99.99
2022-10-17T06:07:28.808Z,99.99
2022-10-17T06:08:29.825Z,99.99
2022-10-17T06:09:28.827Z,99.99
2022-10-17T06:10:28.878Z,99.99
2022-10-17T06:11:28.794Z,99.99
2022-10-17T06:12:29.089Z,99.99
2022-10-17T06:13:28.785Z,99.99
2022-10-17T06:14:29.826Z,99.99
2022-10-17T06:15:28.876Z,99.99
2022-10-17T06:16:28.793Z,99.99
2022-10-17T06:17:28.804Z,99.99
2022-10-17T06:18:28.777Z,99.99
2022-10-17T06:19:28.783Z,99.99
2022-10-17T06:20:29.819Z,99.99
2022-10-17T06:21:28.780Z,99.99
2022-10-17T06:22:28.953Z,99.99
2022-10-17T06:23:28.782Z,99.99
2022-10-17T06:24:28.784Z,99.99
2022-10-17T06:25:28.860Z,99.99
2022-10-17T06:26:29.848Z,99.99
2022-10-17T06:27:28.793Z,99.99
2022-10-17T06:28:28.848Z,99.99
2022-10-17T06:29:28.761Z,99.99
2022-10-17T06:30:28.765Z,99.99
2022-10-17T06:31:30.861Z,99.99
2022-10-17T06:32:29.915Z,99.99
2022-10-17T06:33:28.768Z,99.99
2022-10-17T06:34:28.761Z,99.99
2022-10-17T06:35:28.754Z,99.99
2022-10-17T06:36:29.465Z,99.99
2022-10-17T06:37:30.068Z,99.99
2022-10-17T06:38:29.768Z,99.99
2022-10-17T06:39:28.776Z,99.99
2022-10-17T06:40:28.759Z,99.99
2022-10-17T06:41:28.729Z,99.99
2022-10-17T06:42:28.761Z,99.99
2022-10-17T06:43:28.744Z,99.99
2022-10-17T06:44:29.776Z,99.99
2022-10-17T06:45:28.722Z,99.99
2022-10-17T06:46:28.730Z,99.99
2022-10-17T06:47:28.940Z,99.99
2022-10-17T06:48:28.732Z,99.99
2022-10-17T06:49:28.763Z,99.99
2022-10-17T06:50:29.750Z,99.99
2022-10-17T06:51:28.705Z,99.99
2022-10-17T06:52:28.725Z,99.99
2022-10-17T06:53:28.708Z,99.99
2022-10-17T06:54:28.717Z,99.99
2022-10-17T06:55:28.709Z,99.99
2022-10-17T06:56:29.767Z,99.99
2022-10-17T06:57:28.830Z,99.99
2022-10-17T06:58:28.720Z,99.99
2022-10-17T06:59:28.700Z,99.99
2022-10-17T07:00:28.695Z,99.99
2022-10-17T07:01:28.744Z,99.99
2022-10-17T07:02:29.971Z,99.99
2022-10-17T07:03:28.700Z,99.99
2022-10-17T07:04:28.687Z,99.99
2022-10-17T07:05:28.699Z,99.99
2022-10-17T07:06:28.734Z,99.99
2022-10-17T07:07:28.993Z,99.99
2022-10-17T07:08:29.693Z,99.99
2022-10-17T07:09:28.700Z,99.99
2022-10-17T07:10:28.800Z,99.99
2022-10-17T07:11:28.690Z,99.99
2022-10-17T07:12:28.692Z,99.99
2022-10-17T07:13:28.699Z,99.99
2022-10-17T07:14:29.685Z,99.99
2022-10-17T07:15:28.651Z,99.99
2022-10-17T07:16:28.674Z,99.99
2022-10-17T07:17:28.972Z,99.99
2022-10-17T07:18:28.671Z,99.99
2022-10-17T07:19:28.659Z,99.99
2022-10-17T07:20:29.674Z,99.99
2022-10-17T07:21:28.659Z,99.99
2022-10-17T07:22:28.649Z,99.99
2022-10-17T07:23:28.676Z,99.99
2022-10-17T07:24:28.705Z,99.99
2022-10-17T07:25:28.646Z,99.99
2022-10-17T07:26:29.699Z,99.99
2022-10-17T07:27:28.996Z,99.99
2022-10-17T07:28:28.713Z,99.99
2022-10-17T07:29:28.683Z,99.99
2022-10-17T07:30:28.664Z,99.99
2022-10-17T07:31:28.638Z,99.99
2022-10-17T07:32:29.659Z,99.99
2022-10-17T07:33:28.675Z,99.99
2022-10-17T07:34:28.643Z,99.99
2022-10-17T07:35:28.635Z,99.99
2022-10-17T07:36:28.640Z,99.99
2022-10-17T07:37:28.862Z,99.99
2022-10-17T07:38:29.643Z,99.99
2022-10-17T07:39:28.645Z,99.99
2022-10-17T07:40:28.634Z,99.99
2022-10-17T07:41:28.644Z,99.99
2022-10-17T07:42:28.675Z,99.99
2022-10-17T07:43:28.636Z,99.99
2022-10-17T07:44:29.645Z,99.29
2022-10-17T07:45:28.646Z,97.38
2022-10-17T07:46:28.649Z,95.79
2022-10-17T07:47:28.882Z,93.92
2022-10-17T07:48:28.646Z,91.04
2022-10-17T07:49:28.655Z,89.26
2022-10-17T07:50:29.663Z,88.49
2022-10-17T07:51:28.667Z,86.99
2022-10-17T07:52:28.925Z,85.84
2022-10-17T07:53:28.670Z,84.63
2022-10-17T07:54:28.700Z,83.04
2022-10-17T07:55:28.678Z,81.21
2022-10-17T07:56:29.713Z,80.77
2022-10-17T07:57:28.717Z,80.23
2022-10-17T07:58:28.723Z,78.98
2022-10-17T07:59:28.766Z,77.48
2022-10-17T08:00:28.730Z,76.80
2022-10-17T08:01:28.783Z,76.51
2022-10-17T08:02:29.906Z,76.61
2022-10-17T08:03:28.755Z,76.61
2022-10-17T08:04:28.818Z,75.93
2022-10-17T08:05:28.767Z,74.97
2022-10-17T08:06:28.795Z,74.91
2022-10-17T08:07:29.590Z,74.05
2022-10-17T08:08:29.819Z,73.57
2022-10-17T08:09:28.813Z,73.85
2022-10-17T08:10:28.835Z,73.75
2022-10-17T08:11:28.823Z,73.02
2022-10-17T08:12:29.149Z,72.25
2022-10-17T08:13:28.838Z,71.58
2022-10-17T08:14:29.885Z,71.77
2022-10-17T08:15:31.752Z,72.06
2022-10-17T08:16:28.889Z,71.58
2022-10-17T08:17:28.903Z,71.86
2022-10-17T08:18:28.910Z,70.70
2022-10-17T08:19:28.917Z,71.58
2022-10-17T08:20:29.937Z,71.09
2022-10-17T08:21:28.939Z,71.77
2022-10-17T08:22:29.108Z,71.28
2022-10-17T08:23:28.988Z,71.48
2022-10-17T08:24:28.973Z,70.80
2022-10-17T08:25:28.966Z,70.90
2022-10-17T08:26:29.992Z,70.42
2022-10-17T08:27:29.012Z,70.32
2022-10-17T08:28:29.043Z,70.00
2022-10-17T08:29:29.017Z,71.06
2022-10-17T08:30:29.056Z,71.12
2022-10-17T08:31:29.045Z,71.79
2022-10-17T08:32:30.339Z,72.75
2022-10-17T08:33:29.066Z,73.01
2022-10-17T08:34:29.070Z,74.16
2022-10-17T08:35:29.129Z,75.09
2022-10-17T08:36:29.088Z,75.38
2022-10-17T08:37:29.524Z,76.53
2022-10-17T08:38:33.236Z,76.69
2022-10-17T08:39:29.104Z,77.40
2022-10-17T08:40:29.149Z,77.94
2022-10-17T08:41:29.129Z,78.03
2022-10-17T08:42:29.138Z,77.75
2022-10-17T08:43:33.323Z,77.94
2022-10-17T08:44:30.172Z,78.71
2022-10-17T08:45:29.184Z,79.10
2022-10-17T08:46:29.176Z,78.90
2022-10-17T08:47:29.485Z,79.10
2022-10-17T08:48:29.191Z,79.73
2022-10-17T08:49:29.199Z,79.73
2022-10-17T08:50:30.219Z,80.02
2022-10-17T08:51:29.213Z,79.92
2022-10-17T08:52:29.223Z,80.21
2022-10-17T08:53:29.226Z,81.17
2022-10-17T08:54:29.237Z,80.79
2022-10-17T08:55:29.240Z,80.69
2022-10-17T08:56:47.677Z,80.88
2022-10-17T08:57:29.602Z,80.88
2022-10-17T08:58:29.265Z,81.17
2022-10-17T08:59:29.258Z,81.75
2022-10-17T09:00:29.272Z,81.90
2022-10-17T09:01:29.277Z,81.99
2022-10-17T09:02:30.364Z,82.38
2022-10-17T09:03:29.372Z,82.04
2022-10-17T09:04:29.397Z,82.48
2022-10-17T09:05:29.303Z,82.32
2022-10-17T09:06:29.300Z,82.57
2022-10-17T09:07:29.405Z,82.19
2022-10-17T09:08:30.319Z,82.96
2022-10-17T09:09:29.348Z,82.76
2022-10-17T09:10:29.339Z,82.29
2022-10-17T09:11:29.329Z,82.67
2022-10-17T09:12:29.638Z,82.38
2022-10-17T09:13:29.363Z,82.52
2022-10-17T09:14:30.331Z,82.57
2022-10-17T09:15:29.346Z,82.38
2022-10-17T09:16:29.337Z,82.90
2022-10-17T09:17:29.523Z,82.81
2022-10-17T09:18:29.385Z,83.29
2022-10-17T09:19:29.346Z,82.90
2022-10-17T09:20:30.359Z,83.00
2022-10-17T09:21:29.352Z,82.61
2022-10-17T09:22:29.383Z,83.00
2022-10-17T09:23:29.361Z,83.00
2022-10-17T09:24:29.355Z,83.09
2022-10-17T09:25:29.407Z,82.81
2022-10-17T09:26:30.376Z,82.61
2022-10-17T09:27:29.617Z,82.23
2022-10-17T09:28:29.431Z,81.65
2022-10-17T09:29:35.337Z,81.65
2022-10-17T09:30:45.476Z,81.98
2022-10-17T09:31:29.389Z,82.17
2022-10-17T09:32:30.509Z,82.14
2022-10-17T09:33:35.165Z,82.37
2022-10-17T09:34:29.381Z,81.40
2022-10-17T09:35:29.385Z,81.21
2022-10-17T09:36:29.385Z,81.40
2022-10-17T09:37:29.387Z,81.21
2022-10-17T09:38:30.388Z,81.12
2022-10-17T09:39:29.414Z,81.02
2022-10-17T09:40:29.405Z,81.02
2022-10-17T09:41:46.562Z,81.02
2022-10-17T09:42:29.661Z,81.02
2022-10-17T09:43:29.394Z,80.92
2022-10-17T09:44:30.411Z,81.30
2022-10-17T09:45:29.420Z,81.21
2022-10-17T09:46:29.420Z,81.79
2022-10-17T09:47:29.409Z,81.79
2022-10-17T09:48:29.410Z,81.79
2022-10-17T09:49:29.406Z,81.21
2022-10-17T09:50:30.434Z,80.92
2022-10-17T09:51:29.409Z,80.92
2022-10-17T09:52:29.663Z,81.40
2022-10-17T09:53:29.436Z,81.12
2022-10-17T09:54:29.415Z,80.06
2022-10-17T09:55:29.424Z,80.06
2022-10-17T09:56:30.451Z,79.58
2022-10-17T09:57:29.474Z,79.67
2022-10-17T09:58:29.429Z,80.10
2022-10-17T09:59:29.434Z,80.10
2022-10-17T10:00:29.509Z,79.96
2022-10-17T10:01:29.437Z,79.71
2022-10-17T10:02:30.753Z,79.03
2022-10-17T10:03:29.508Z,80.10
2022-10-17T10:04:30.303Z,79.81
2022-10-17T10:05:29.463Z,79.61
2022-10-17T10:06:29.476Z,79.52
2022-10-17T10:07:29.529Z,79.71
2022-10-17T10:08:30.459Z,79.43
2022-10-17T10:09:29.463Z,78.85
2022-10-17T10:10:29.463Z,78.46
2022-10-17T10:11:29.454Z,78.94
2022-10-17T10:12:29.824Z,79.13
2022-10-17T10:13:29.470Z,78.46
2022-10-17T10:14:30.467Z,78.56
2022-10-17T10:15:29.472Z,79.03
2022-10-17T10:16:29.471Z,78.56
2022-10-17T10:17:29.470Z,78.65
2022-10-17T10:19:29.480Z,78.56
2022-10-17T10:20:30.492Z,78.65
2022-10-17T10:21:29.508Z,78.75
2022-10-17T10:22:29.635Z,79.33
2022-10-17T10:23:29.488Z,79.43
2022-10-17T10:24:31.048Z,79.33
2022-10-17T10:25:29.497Z,79.71
2022-10-17T10:26:30.495Z,79.90
2022-10-17T10:27:29.531Z,79.52
2022-10-17T10:28:29.581Z,79.52
2022-10-17T10:29:29.509Z,79.33
2022-10-17T10:30:29.499Z,79.43
2022-10-17T10:31:29.506Z,79.43
2022-10-17T10:32:30.831Z,78.94
2022-10-17T10:33:29.524Z,79.23
2022-10-17T10:34:29.499Z,79.52
2022-10-17T10:35:29.502Z,79.23
2022-10-17T10:36:29.567Z,78.94
2022-10-17T10:37:29.737Z,78.27
2022-10-17T10:38:30.525Z,78.17
2022-10-17T10:39:29.516Z,77.98
2022-10-17T10:40:29.518Z,78.65
2022-10-17T10:41:29.531Z,78.65
2022-10-17T10:42:29.522Z,78.94
2022-10-17T10:43:29.528Z,79.43
2022-10-17T10:44:30.533Z,79.33
2022-10-17T10:45:46.991Z,79.81
2022-10-17T10:46:29.523Z,78.94
2022-10-17T10:47:29.722Z,78.65
2022-10-17T10:48:29.540Z,78.56
2022-10-17T10:49:29.531Z,78.69
2022-10-17T10:50:30.546Z,78.79
2022-10-17T10:51:29.546Z,78.11
2022-10-17T10:52:29.536Z,77.34
2022-10-17T10:53:32.909Z,77.15
2022-10-17T10:54:29.585Z,76.96
2022-10-17T10:55:29.554Z,77.25
2022-10-17T10:56:30.560Z,77.15
2022-10-17T10:57:29.822Z,77.44
2022-10-17T10:58:29.579Z,77.06
2022-10-17T10:59:29.578Z,76.76
2022-10-17T11:00:29.649Z,76.96
2022-10-17T11:01:29.562Z,76.28
2022-10-17T11:02:30.596Z,76.57
2022-10-17T11:03:29.592Z,76.57
2022-10-17T11:04:29.561Z,76.57
2022-10-17T11:05:29.584Z,76.57
2022-10-17T11:06:29.626Z,76.38
2022-10-17T11:07:29.699Z,75.80
2022-10-17T11:08:30.599Z,75.65
2022-10-17T11:09:32.854Z,75.16
2022-10-17T11:10:29.578Z,75.36
2022-10-17T11:11:29.597Z,74.97
2022-10-17T11:12:29.594Z,75.26
2022-10-17T11:13:29.604Z,75.16
2022-10-17T11:14:30.612Z,74.88
2022-10-17T11:15:29.609Z,74.49
2022-10-17T11:16:29.630Z,74.58
2022-10-17T11:17:29.910Z,74.30
2022-10-17T11:18:29.586Z,74.20
2022-10-17T11:19:29.615Z,74.30
2022-10-17T11:20:30.648Z,73.43
2022-10-17T11:21:29.668Z,73.53
2022-10-17T11:22:29.699Z,73.14
2022-10-17T11:23:29.607Z,73.82
2022-10-17T11:24:29.678Z,73.43
2022-10-17T11:25:29.629Z,73.33
2022-10-17T11:26:30.690Z,72.95
2022-10-17T11:27:29.626Z,72.75
2022-10-17T11:28:29.644Z,72.27
2022-10-17T11:29:29.655Z,72.27
2022-10-17T11:30:29.654Z,72.56
2022-10-17T11:31:29.649Z,72.27
2022-10-17T11:32:31.130Z,72.37
2022-10-17T11:33:29.646Z,72.31
2022-10-17T11:34:29.680Z,72.21
2022-10-17T11:35:29.653Z,72.02
2022-10-17T11:36:29.712Z,72.02
2022-10-17T11:37:29.660Z,71.83
2022-10-17T11:38:30.651Z,71.83
2022-10-17T11:39:29.659Z,71.25
2022-10-17T11:40:29.659Z,71.54
2022-10-17T11:41:29.722Z,71.54
2022-10-17T11:42:29.964Z,71.15
2022-10-17T11:43:29.677Z,70.86
2022-10-17T11:44:30.672Z,70.86
2022-10-17T11:45:29.661Z,70.96
2022-10-17T11:46:29.676Z,70.86
2022-10-17T11:47:29.697Z,71.54
2022-10-17T11:48:29.674Z,71.44
2022-10-17T11:49:29.699Z,71.44
2022-10-17T11:52:51.871Z,71.83
2022-10-17T11:53:29.680Z,72.02
2022-10-17T11:54:29.685Z,71.73
2022-10-17T11:55:29.695Z,71.92
2022-10-17T11:56:30.697Z,71.34
2022-10-17T11:57:29.709Z,70.86
2022-10-17T11:59:29.960Z,70.09
2022-10-17T12:00:29.764Z,70.38
2022-10-17T12:01:29.734Z,69.71
2022-10-17T12:02:31.041Z,70.09
2022-10-17T12:03:29.727Z,70.09
2022-10-17T12:04:29.781Z,70.00
2022-10-17T12:05:29.786Z,70.86
2022-10-17T12:06:29.755Z,70.03
2022-10-17T12:07:30.084Z,70.03
2022-10-17T12:08:31.403Z,69.74
2022-10-17T12:09:29.728Z,69.74
2022-10-17T12:10:29.765Z,70.32
2022-10-17T12:11:29.739Z,70.32
2022-10-17T12:12:30.038Z,69.93
2022-10-17T12:13:29.821Z,70.32
2022-10-17T12:14:30.766Z,70.13
2022-10-17T12:15:29.743Z,69.74
2022-10-17T12:16:29.832Z,70.22
2022-10-17T12:17:30.011Z,69.93
2022-10-17T12:18:29.761Z,69.74
2022-10-17T12:19:29.761Z,70.22
2022-10-17T12:20:30.783Z,69.93
2022-10-17T12:21:31.382Z,69.64
2022-10-17T12:22:29.789Z,69.55
2022-10-17T12:23:29.760Z,69.64
2022-10-17T12:24:29.772Z,69.35
2022-10-17T12:25:29.846Z,69.35
2022-10-17T12:26:30.802Z,69.20
2022-10-17T12:27:30.125Z,69.35
2022-10-17T12:28:29.805Z,68.97
2022-10-17T12:29:29.791Z,68.97
2022-10-17T12:30:29.792Z,69.16
2022-10-17T12:31:33.901Z,69.39
2022-10-17T12:32:46.838Z,69.35
2022-10-17T12:33:29.801Z,69.35
2022-10-17T12:34:29.800Z,69.26
2022-10-17T12:35:29.809Z,69.35
2022-10-17T12:36:29.811Z,68.43
2022-10-17T12:37:30.068Z,67.94
2022-10-17T12:38:30.898Z,68.33
2022-10-17T12:39:29.826Z,68.01
2022-10-17T12:40:29.826Z,68.13
2022-10-17T12:41:29.835Z,68.13
2022-10-17T12:42:30.130Z,68.49
2022-10-17T12:43:29.877Z,68.81
2022-10-17T12:44:34.271Z,68.62
2022-10-17T12:45:29.847Z,69.00
2022-10-17T12:46:29.841Z,68.71
2022-10-17T12:47:30.203Z,68.59
2022-10-17T12:48:29.846Z,68.62
2022-10-17T12:49:29.856Z,68.62
2022-10-17T12:50:34.796Z,68.23
2022-10-17T12:51:35.825Z,68.62
2022-10-17T12:52:29.882Z,68.59
2022-10-17T12:53:30.418Z,68.49
2022-10-17T12:54:37.847Z,68.33
2022-10-17T12:55:29.866Z,69.29
2022-10-17T12:56:30.889Z,69.29
2022-10-17T12:57:30.230Z,69.20
2022-10-17T12:58:29.871Z,69.45